Time;durP1;ratioP1;P1;durP2;ratioP2;P2;SDS_P1;SDS_P2;PMS_P1;PMS_P2;Temp;Humidity;BMP_temperature;BMP_pressure;BME280_temperature;BME280_humidity;BME280_pressure;Samples;Min_cycle;Max_cycle;Signal;HPM_P1;HPM_P2
2022/08/21 00:02:00;;;;;;;18.42;2.15;;;;;;;19.41;100.00;99313.13;1750955;80;21387;-53
2022/08/21 00:04:27;;;;;;;16.95;2.72;;;;;;;19.42;100.00;99316.72;1751945;80;21445;-52
2022/08/21 00:06:54;;;;;;;17.27;2.92;;;;;;;19.42;100.00;99312.12;1749505;80;21348;-52
2022/08/21 00:09:20;;;;;;;18.87;2.40;;;;;;;19.45;100.00;99315.09;1748392;80;21383;-52
2022/08/21 00:11:46;;;;;;;19.27;2.77;;;;;;;19.46;100.00;99321.77;1741741;80;21377;-52
2022/08/21 00:14:13;;;;;;;14.70;2.37;;;;;;;19.48;100.00;99314.31;1691159;83;21380;-52
2022/08/21 00:16:40;;;;;;;25.85;3.05;;;;;;;19.51;100.00;99311.31;1707110;82;21326;-52
2022/08/21 00:19:06;;;;;;;10.95;2.00;;;;;;;19.52;100.00;99307.59;1686698;83;20922;-52
2022/08/21 00:21:34;;;;;;;19.62;2.17;;;;;;;19.53;100.00;99305.72;1710964;82;21384;-53
2022/08/21 00:24:01;;;;;;;21.35;2.12;;;;;;;19.54;100.00;99316.50;1707991;82;21238;-52
2022/08/21 00:26:27;;;;;;;15.83;1.92;;;;;;;19.57;100.00;99315.34;1691050;82;21351;-52
2022/08/21 00:28:54;;;;;;;15.93;1.80;;;;;;;19.59;100.00;99321.52;1709173;82;20939;-52
2022/08/21 00:31:20;;;;;;;17.12;2.10;;;;;;;19.59;100.00;99328.34;1712427;82;20914;-52
2022/08/21 00:33:47;;;;;;;15.13;2.67;;;;;;;19.57;100.00;99327.12;1673067;83;21042;-53
2022/08/21 00:36:14;;;;;;;11.70;2.92;;;;;;;19.59;100.00;99324.26;1678190;83;21265;-52
2022/08/21 00:38:41;;;;;;;13.93;2.58;;;;;;;19.58;100.00;99324.76;1710258;82;21107;-52
2022/08/21 00:41:09;;;;;;;20.52;3.35;;;;;;;19.58;100.00;99322.53;1699917;82;21054;-52
2022/08/21 00:43:36;;;;;;;18.52;2.40;;;;;;;19.57;100.00;99318.06;1709647;82;21105;-52
2022/08/21 00:46:04;;;;;;;12.30;1.75;;;;;;;19.55;100.00;99316.00;1710782;82;21093;-52
2022/08/21 00:48:31;;;;;;;18.82;2.65;;;;;;;19.55;100.00;99317.38;1714546;82;21845;-52
2022/08/21 00:51:11;;;;;;;23.57;2.50;;;;;;;19.55;100.00;99314.14;1700677;83;21129;-52
2022/08/21 00:53:41;;;;;;;22.37;2.40;;;;;;;19.53;100.00;99313.41;1703042;82;21113;-52
2022/08/21 00:56:09;;;;;;;17.05;2.08;;;;;;;19.52;100.00;99328.06;1707236;82;21073;-52
2022/08/21 00:58:36;;;;;;;17.77;3.08;;;;;;;19.52;100.00;99324.46;1676013;83;21061;-52
2022/08/21 01:01:04;;;;;;;17.32;2.72;;;;;;;19.50;100.00;99330.06;1705173;83;21596;-52
2022/08/21 01:03:30;;;;;;;13.40;2.65;;;;;;;19.50;100.00;99327.33;1697258;83;21117;-52
2022/08/21 01:05:57;;;;;;;20.82;2.92;;;;;;;19.49;100.00;99329.69;1706324;82;21105;-52
2022/08/21 01:08:23;;;;;;;15.00;2.25;;;;;;;19.49;100.00;99322.87;1741416;80;21042;-52
2022/08/21 01:10:50;;;;;;;12.80;1.67;;;;;;;19.49;100.00;99324.73;1735719;80;21474;-52
2022/08/21 01:13:18;;;;;;;16.17;2.22;;;;;;;19.48;100.00;99328.49;1741738;80;21250;-52
2022/08/21 01:15:47;;;;;;;13.03;1.20;;;;;;;19.47;100.00;99326.73;1736191;80;21076;-52
2022/08/21 01:18:14;;;;;;;16.15;2.37;;;;;;;19.45;100.00;99325.50;1743223;80;20958;-52
2022/08/21 01:21:00;;;;;;;12.60;2.35;;;;;;;19.47;100.00;99325.37;1739272;80;21086;-52
2022/08/21 01:23:27;;;;;;;22.52;2.67;;;;;;;19.45;100.00;99325.50;1742881;80;21049;-53
2022/08/21 01:25:53;;;;;;;15.60;2.75;;;;;;;19.46;100.00;99323.14;1742328;80;21529;-53
2022/08/21 01:28:20;;;;;;;14.83;2.00;;;;;;;19.47;100.00;99325.37;1738750;80;21434;-52
2022/08/21 01:30:46;;;;;;;16.73;2.27;;;;;;;19.48;100.00;99327.96;1741374;80;21034;-52
2022/08/21 01:33:13;;;;;;;14.90;1.52;;;;;;;19.48;100.00;99325.23;1735460;80;21071;-52
2022/08/21 01:35:40;;;;;;;15.15;1.77;;;;;;;19.50;100.00;99321.00;1739716;80;21038;-53
2022/08/21 01:38:06;;;;;;;14.75;1.50;;;;;;;19.49;100.00;99320.64;1702737;82;21242;-53
2022/08/21 01:40:33;;;;;;;16.10;1.60;;;;;;;19.49;100.00;99328.83;1742424;80;21604;-53
2022/08/21 01:42:59;;;;;;;12.30;1.87;;;;;;;19.50;100.00;99323.73;1740086;80;21666;-52
2022/08/21 01:45:26;;;;;;;10.13;1.60;;;;;;;19.50;100.00;99322.37;1746681;80;21128;-52
2022/08/21 01:47:52;;;;;;;20.30;1.60;;;;;;;19.50;100.00;99317.77;1732935;81;21066;-52
2022/08/21 01:50:20;;;;;;;17.32;2.85;;;;;;;19.51;100.00;99320.88;1736291;80;21548;-53
2022/08/21 01:52:47;;;;;;;17.12;1.60;;;;;;;19.54;100.00;99320.60;1736185;80;21047;-52
2022/08/21 01:55:14;;;;;;;19.23;2.37;;;;;;;19.54;100.00;99316.50;1705828;82;21710;-53
2022/08/21 01:57:41;;;;;;;18.02;2.05;;;;;;;19.55;100.00;99316.00;1737907;80;21155;-52
2022/08/21 02:00:10;;;;;;;15.05;2.27;;;;;;;19.55;100.00;99317.38;1716282;81;21090;-52
2022/08/21 02:02:40;;;;;;;21.62;2.50;;;;;;;19.56;100.00;99315.00;1741338;80;21102;-53
2022/08/21 02:05:09;;;;;;;15.53;2.02;;;;;;;19.57;100.00;99313.97;1743910;80;21042;-53
2022/08/21 02:07:39;;;;;;;16.55;1.57;;;;;;;19.59;100.00;99314.70;1738258;80;21114;-52
2022/08/21 02:10:07;;;;;;;17.77;1.65;;;;;;;19.59;100.00;99310.61;1736382;80;21463;-53
2022/08/21 02:12:33;;;;;;;18.25;1.72;;;;;;;19.61;100.00;99314.06;1738008;80;21048;-52
2022/08/21 02:15:00;;;;;;;15.90;1.98;;;;;;;19.61;100.00;99318.16;1738186;80;21212;-52
2022/08/21 02:17:27;;;;;;;16.73;2.12;;;;;;;19.64;100.00;99311.06;1736168;80;21085;-53
2022/08/21 02:19:54;;;;;;;13.53;1.95;;;;;;;19.67;100.00;99308.53;1738122;80;21094;-53
2022/08/21 02:22:20;;;;;;;13.45;2.02;;;;;;;19.66;100.00;99306.30;1737947;80;21124;-53
2022/08/21 02:24:46;;;;;;;10.72;2.75;;;;;;;19.66;100.00;99304.94;1737540;80;21073;-52
2022/08/21 02:27:13;;;;;;;17.65;1.85;;;;;;;19.65;100.00;99293.65;1739604;80;21235;-53
2022/08/21 02:29:40;;;;;;;16.40;2.00;;;;;;;19.64;100.00;99299.64;1737841;80;21053;-53
2022/08/21 02:32:06;;;;;;;11.43;1.55;;;;;;;19.63;100.00;99292.45;1738265;80;21517;-52
2022/08/21 02:34:33;;;;;;;9.93;1.50;;;;;;;19.65;100.00;99286.32;1740697;80;21049;-52
2022/08/21 02:37:59;;;;;;;16.25;2.42;;;;;;;19.65;100.00;99287.69;1655228;80;975449;-53
2022/08/21 02:40:30;;;;;;;18.87;2.08;;;;;;;19.65;100.00;99287.69;1746239;80;21059;-52
2022/08/21 02:42:59;;;;;;;17.40;1.87;;;;;;;19.65;100.00;99281.36;1738184;80;21161;-53
2022/08/21 02:45:25;;;;;;;21.70;2.37;;;;;;;19.64;100.00;99287.36;1741494;80;20946;-53
2022/08/21 02:47:56;;;;;;;18.37;2.92;;;;;;;19.64;100.00;99291.95;1746166;80;21049;-52
2022/08/21 02:50:28;;;;;;;15.90;1.92;;;;;;;19.63;100.00;99285.63;1735097;80;21269;-53
2022/08/21 02:52:55;;;;;;;16.90;3.58;;;;;;;19.63;100.00;99288.36;1745079;80;21466;-52
2022/08/21 02:55:23;;;;;;;11.85;1.98;;;;;;;19.63;100.00;99291.09;1740660;80;20956;-52
2022/08/21 02:57:50;;;;;;;16.25;1.85;;;;;;;19.63;100.00;99292.45;1739069;80;20919;-52
2022/08/21 03:00:16;;;;;;;14.38;1.95;;;;;;;19.62;100.00;99290.72;1750389;80;21342;-52
2022/08/21 03:02:46;;;;;;;15.38;1.67;;;;;;;19.63;100.00;99292.95;1741527;80;21721;-53
2022/08/21 03:05:11;;;;;;;17.75;2.08;;;;;;;19.63;100.00;99298.41;1698979;82;21116;-53
2022/08/21 03:07:38;;;;;;;14.60;2.17;;;;;;;19.62;100.00;99303.01;1734775;80;20994;-53
2022/08/21 03:10:06;;;;;;;15.45;2.00;;;;;;;19.62;100.00;99303.01;1737369;80;21329;-52
2022/08/21 03:12:32;;;;;;;13.70;2.33;;;;;;;19.61;100.00;99311.34;1738959;80;21345;-53
2022/08/21 03:14:59;;;;;;;15.03;2.05;;;;;;;19.62;100.00;99319.39;1735917;80;21803;-53
2022/08/21 03:17:25;;;;;;;14.50;1.52;;;;;;;19.61;100.00;99313.56;1731677;80;21520;-52
2022/08/21 03:19:52;;;;;;;13.32;1.95;;;;;;;19.62;100.00;99307.60;1733751;81;20942;-52
2022/08/21 03:22:18;;;;;;;9.70;1.50;;;;;;;19.61;100.00;99304.52;1736207;81;21347;-52
2022/08/21 03:24:45;;;;;;;13.80;1.92;;;;;;;19.60;100.00;99309.11;1735304;80;20978;-52
2022/08/21 03:27:12;;;;;;;13.70;2.62;;;;;;;19.58;100.00;99310.23;1740035;81;21799;-53
2022/08/21 03:29:40;;;;;;;22.45;1.92;;;;;;;19.59;100.00;99310.11;1738072;80;21052;-52
2022/08/21 03:32:09;;;;;;;16.15;1.72;;;;;;;19.60;100.00;99309.11;1727556;80;21086;-52
2022/08/21 03:34:37;;;;;;;18.73;2.00;;;;;;;19.60;100.00;99318.66;1728333;80;21062;-52
2022/08/21 03:37:05;;;;;;;21.00;2.98;;;;;;;19.61;100.00;99313.56;1734267;80;21071;-52
2022/08/21 03:39:32;;;;;;;10.75;1.65;;;;;;;19.62;100.00;99322.63;1733870;80;21119;-53
2022/08/21 03:41:59;;;;;;;15.08;1.70;;;;;;;19.61;100.00;99325.84;1735479;80;21088;-52
2022/08/21 03:44:28;;;;;;;13.32;2.22;;;;;;;19.60;100.00;99326.84;1734590;80;21387;-52
2022/08/21 03:46:56;;;;;;;17.23;1.37;;;;;;;19.60;100.00;99332.31;1735257;80;21061;-52
2022/08/21 03:49:22;;;;;;;10.48;1.42;;;;;;;19.60;100.00;99331.45;1736029;80;21623;-52
2022/08/21 03:51:48;;;;;;;18.20;1.72;;;;;;;19.58;100.00;99328.84;1733343;80;21473;-53
2022/08/21 03:54:15;;;;;;;22.67;2.22;;;;;;;19.58;100.00;99334.81;1733214;80;21462;-52
2022/08/21 03:56:42;;;;;;;15.05;2.05;;;;;;;19.55;100.00;99342.80;1732963;80;21946;-52
2022/08/21 03:59:08;;;;;;;13.08;2.75;;;;;;;19.55;100.00;99337.34;1732832;80;21118;-53
2022/08/21 04:01:35;;;;;;;13.83;1.85;;;;;;;19.54;100.00;99336.98;1733722;80;21041;-53
2022/08/21 04:04:03;;;;;;;16.15;1.87;;;;;;;19.55;100.00;99337.34;1735128;80;21315;-53
2022/08/21 04:06:30;;;;;;;10.48;1.32;;;;;;;19.56;100.00;99337.67;1733595;80;21710;-53
2022/08/21 04:08:56;;;;;;;17.45;1.95;;;;;;;19.57;100.00;99335.81;1734230;80;21457;-53
2022/08/21 04:11:23;;;;;;;13.15;1.65;;;;;;;19.60;100.00;99336.91;1733712;81;21994;-53
2022/08/21 04:13:49;;;;;;;12.78;2.25;;;;;;;19.64;100.00;99335.13;1733833;80;21559;-53
2022/08/21 04:16:16;;;;;;;9.50;1.37;;;;;;;19.75;100.00;99334.62;1735125;80;22266;-52
2022/08/21 04:18:43;;;;;;;18.60;2.47;;;;;;;19.87;100.00;99342.55;1732025;81;21054;-52
2022/08/21 04:21:10;;;;;;;18.92;1.82;;;;;;;20.06;100.00;99343.57;1730211;80;21020;-53
2022/08/21 04:23:37;;;;;;;14.93;1.52;;;;;;;20.23;100.00;99351.91;1735018;80;21086;-53
2022/08/21 04:26:03;;;;;;;9.13;1.45;;;;;;;20.39;100.00;99347.25;1730354;80;21144;-54
2022/08/21 04:28:30;;;;;;;13.60;1.70;;;;;;;20.49;100.00;99351.34;1727538;81;21795;-52
2022/08/21 04:30:57;;;;;;;16.02;1.57;;;;;;;20.52;100.00;99351.89;1730705;80;21054;-54
2022/08/21 04:33:24;;;;;;;11.88;2.15;;;;;;;20.55;100.00;99345.28;1732061;80;21140;-53
2022/08/21 04:35:50;;;;;;;17.85;1.95;;;;;;;20.62;100.00;99348.64;1727378;80;21026;-53
2022/08/21 04:38:17;;;;;;;6.62;1.25;;;;;;;20.72;100.00;99343.16;1732807;81;21101;-53
2022/08/21 04:40:44;;;;;;;21.25;3.02;;;;;;;20.85;100.00;99342.81;1733713;80;21115;-53
2022/08/21 04:43:10;;;;;;;21.07;1.92;;;;;;;20.95;100.00;99342.28;1734752;80;21083;-53
2022/08/21 04:45:44;;;;;;;10.70;1.50;;;;;;;20.98;100.00;99345.59;1733663;80;21127;-53
2022/08/21 04:48:12;;;;;;;16.52;1.45;;;;;;;20.94;100.00;99342.78;1733256;81;21081;-53
2022/08/21 04:51:01;;;;;;;7.45;1.40;;;;;;;20.87;100.00;99345.77;1730544;81;21070;-53
2022/08/21 04:53:39;;;;;;;21.68;1.50;;;;;;;20.80;100.00;99348.74;1736973;80;21282;-53
2022/08/21 04:56:12;;;;;;;26.37;3.17;;;;;;;20.72;100.00;99341.78;1726923;80;21089;-53
2022/08/21 04:58:38;;;;;;;14.80;1.20;;;;;;;20.68;100.00;99346.67;1731850;80;21063;-53
2022/08/21 05:01:07;;;;;;;21.55;2.15;;;;;;;20.66;100.00;99346.48;1729856;80;21610;-53
2022/08/21 05:03:34;;;;;;;22.77;2.67;;;;;;;20.65;100.00;99346.13;1727942;81;21011;-53
2022/08/21 05:06:01;;;;;;;8.65;1.55;;;;;;;20.64;100.00;99351.23;1724948;81;21254;-52
2022/08/21 05:08:27;;;;;;;11.03;1.60;;;;;;;20.62;100.00;99352.74;1692684;81;21056;-53
2022/08/21 05:10:54;;;;;;;19.10;1.85;;;;;;;20.62;100.00;99350.52;1723936;81;21074;-53
2022/08/21 05:13:22;;;;;;;25.60;2.10;;;;;;;20.60;100.00;99356.62;1722095;81;21497;-53
2022/08/21 05:15:48;;;;;;;19.02;1.85;;;;;;;20.53;100.00;99352.25;1718122;81;21124;-53
2022/08/21 05:18:16;;;;;;;19.57;1.77;;;;;;;20.52;100.00;99351.89;1726675;81;21210;-52
2022/08/21 05:20:44;;;;;;;11.90;1.70;;;;;;;20.53;100.00;99354.98;1719318;81;21074;-53
2022/08/21 05:23:12;;;;;;;16.45;1.47;;;;;;;20.55;100.00;99349.38;1722231;81;21069;-54
2022/08/21 05:25:39;;;;;;;10.40;1.02;;;;;;;20.56;100.00;99345.64;1723685;81;21722;-53
2022/08/21 05:28:06;;;;;;;15.00;1.45;;;;;;;20.60;100.00;99348.42;1715883;81;21653;-52
2022/08/21 05:30:34;;;;;;;13.45;1.20;;;;;;;20.63;100.00;99357.70;1716396;81;21598;-53
2022/08/21 05:33:02;;;;;;;14.55;1.30;;;;;;;20.66;100.00;99353.33;1729995;81;20903;-53
2022/08/21 05:35:29;;;;;;;15.15;1.42;;;;;;;20.70;100.00;99347.40;1728441;81;21041;-53
2022/08/21 05:37:56;;;;;;;15.55;1.65;;;;;;;20.75;100.00;99341.50;1725605;81;21125;-53
2022/08/21 05:40:23;;;;;;;14.65;1.70;;;;;;;20.79;100.00;99353.85;1732069;81;21074;-54
2022/08/21 05:42:50;;;;;;;16.73;1.77;;;;;;;20.84;100.00;99354.80;1730998;81;21359;-53
2022/08/21 05:45:17;;;;;;;23.30;1.90;;;;;;;20.88;100.00;99351.59;1687928;83;21386;-52
2022/08/21 05:47:43;;;;;;;16.20;1.70;;;;;;;20.92;100.00;99350.30;1733312;81;21840;-52
2022/08/21 05:50:10;;;;;;;21.55;1.45;;;;;;;20.97;100.00;99353.44;1730718;81;21378;-53
2022/08/21 05:52:37;;;;;;;15.98;1.20;;;;;;;21.01;100.00;99353.48;1723286;81;21536;-54
2022/08/21 05:55:05;;;;;;;19.45;1.80;;;;;;;21.04;100.00;99354.56;1725095;81;21338;-53
2022/08/21 05:57:33;;;;;;;14.60;1.40;;;;;;;21.09;100.00;99350.02;1721998;81;20976;-53
2022/08/21 05:59:59;;;;;;;23.47;2.35;;;;;;;21.13;100.00;99349.55;1730197;81;20991;-53
2022/08/21 06:02:25;;;;;;;20.62;1.57;;;;;;;21.18;100.00;99351.86;1728645;81;21011;-53
2022/08/21 06:04:52;;;;;;;16.50;1.30;;;;;;;21.24;100.00;99354.52;1725155;81;20984;-53
2022/08/21 06:07:18;;;;;;;19.25;1.30;;;;;;;21.28;100.00;99353.19;1730251;81;21165;-53
2022/08/21 06:09:45;;;;;;;15.72;1.40;;;;;;;21.29;100.00;99353.55;1734498;80;20907;-54
2022/08/21 06:12:12;;;;;;;12.18;1.47;;;;;;;21.30;100.00;99358.02;1740398;80;20887;-54
2022/08/21 06:14:39;;;;;;;20.55;1.72;;;;;;;21.34;100.00;99351.23;1732606;81;20991;-53
2022/08/21 06:17:11;;;;;;;22.85;1.67;;;;;;;21.40;100.00;99359.70;1731811;81;20962;-53
2022/08/21 06:19:38;;;;;;;19.23;1.22;;;;;;;21.46;100.00;99358.22;1733307;81;21220;-53
2022/08/21 06:22:05;;;;;;;24.92;1.80;;;;;;;21.51;100.00;99361.37;1727275;81;20946;-54
2022/08/21 06:24:32;;;;;;;22.62;1.52;;;;;;;21.57;100.00;99355.28;1732278;81;20910;-52
2022/08/21 06:27:07;;;;;;;9.78;1.30;;;;;;;21.62;100.00;99361.14;1730549;80;21057;-53
2022/08/21 06:29:34;;;;;;;18.60;1.60;;;;;;;21.62;100.00;99358.41;1736902;80;21029;-53
2022/08/21 06:32:01;;;;;;;9.33;1.40;;;;;;;21.64;100.00;99352.78;1735170;81;21141;-54
2022/08/21 06:34:28;;;;;;;14.78;1.30;;;;;;;21.66;100.00;99360.34;1734150;81;21101;-53
2022/08/21 06:36:54;;;;;;;14.87;1.85;;;;;;;21.68;100.00;99361.92;1737109;80;21061;-53
2022/08/21 06:39:21;;;;;;;13.15;1.55;;;;;;;21.71;100.00;99354.75;1738411;80;21365;-52
2022/08/21 06:41:47;;;;;;;21.52;1.67;;;;;;;21.75;100.00;99347.95;1733246;80;21433;-54
2022/08/21 06:44:16;;;;;;;15.28;2.52;;;;;;;21.78;100.00;99342.15;1734093;80;21107;-53
2022/08/21 06:46:42;;;;;;;17.27;1.90;;;;;;;21.84;100.00;99351.14;1732545;80;21065;-54
2022/08/21 06:49:09;;;;;;;14.23;1.98;;;;;;;21.90;100.00;99351.88;1732254;80;21045;-54
2022/08/21 06:51:35;;;;;;;10.25;1.37;;;;;;;21.96;100.00;99356.38;1730365;81;21670;-53
2022/08/21 06:54:02;;;;;;;14.68;2.22;;;;;;;21.97;100.00;99357.62;1732852;80;21089;-54
2022/08/21 06:56:29;;;;;;;14.10;2.20;;;;;;;21.95;100.00;99354.14;1735834;80;21150;-52
2022/08/21 06:58:55;;;;;;;21.42;1.37;;;;;;;21.93;100.00;99360.81;1736510;81;21073;-54
2022/08/21 07:01:24;;;;;;;20.02;2.27;;;;;;;21.96;100.00;99359.11;1731561;80;21460;-53
2022/08/21 07:03:50;;;;;;;13.03;1.02;;;;;;;22.01;100.00;99354.08;1730861;81;21054;-53
2022/08/21 07:06:17;;;;;;;16.17;1.65;;;;;;;22.08;100.00;99352.44;1733144;80;21121;-53
2022/08/21 07:08:44;;;;;;;15.05;2.30;;;;;;;22.15;100.00;99353.02;1730113;81;21160;-53
2022/08/21 07:11:23;;;;;;;12.40;1.32;;;;;;;22.24;100.00;99362.17;1729725;80;21664;-53
2022/08/21 07:13:52;;;;;;;15.90;1.95;;;;;;;22.25;100.00;99348.83;1730985;80;21090;-52
2022/08/21 07:16:20;;;;;;;16.32;1.85;;;;;;;22.23;100.00;99356.34;1736313;80;21209;-54
2022/08/21 07:18:46;;;;;;;11.40;2.25;;;;;;;22.28;100.00;99347.66;1738796;80;21078;-54
2022/08/21 07:21:13;;;;;;;18.57;1.95;;;;;;;22.35;100.00;99351.48;1736033;81;21137;-53
2022/08/21 07:23:44;;;;;;;15.98;1.72;;;;;;;22.42;100.00;99346.58;1730609;80;21140;-53
2022/08/21 07:26:14;;;;;;;18.05;1.72;;;;;;;22.48;100.00;99347.30;1733294;80;21577;-53
2022/08/21 07:28:41;;;;;;;14.25;1.35;;;;;;;22.59;100.00;99339.34;1737764;80;21673;-53
2022/08/21 07:31:08;;;;;;;15.20;2.12;;;;;;;22.71;100.00;99337.20;1735643;80;21057;-54
2022/08/21 07:33:35;;;;;;;27.52;2.42;;;;;;;22.83;100.00;99342.78;1717124;81;21184;-54
2022/08/21 07:36:02;;;;;;;11.25;1.82;;;;;;;22.93;100.00;99344.91;1730843;80;21014;-54
2022/08/21 07:38:28;;;;;;;13.65;2.25;;;;;;;23.03;100.00;99336.06;1734651;80;21025;-54
2022/08/21 07:40:56;;;;;;;12.45;1.72;;;;;;;23.12;100.00;99339.71;1725917;80;21097;-54
2022/08/21 07:43:23;;;;;;;13.60;2.00;;;;;;;23.21;100.00;99337.36;1727332;80;21518;-53
2022/08/21 07:45:49;;;;;;;13.90;2.02;;;;;;;23.27;100.00;99338.92;1733182;81;21521;-53
2022/08/21 07:48:16;;;;;;;11.20;1.32;;;;;;;23.30;100.00;99330.37;1694536;82;21591;-53
2022/08/21 07:50:43;;;;;;;23.83;1.92;;;;;;;23.36;100.00;99330.20;1696108;82;22765;-54
2022/08/21 07:53:09;;;;;;;23.65;2.30;;;;;;;23.42;100.00;99327.30;1676358;84;21071;-55
2022/08/21 07:55:36;;;;;;;14.68;1.50;;;;;;;23.46;100.00;99321.84;1673862;84;21106;-53
2022/08/21 07:58:03;;;;;;;21.87;2.37;;;;;;;23.53;100.00;99322.92;1675127;84;21156;-53
2022/08/21 08:00:30;;;;;;;18.02;1.77;;;;;;;23.59;100.00;99314.00;1669925;85;21060;-53
2022/08/21 08:02:57;;;;;;;20.02;2.25;;;;;;;23.64;100.00;99313.87;1680811;83;21122;-53
2022/08/21 08:05:27;;;;;;;21.52;2.00;;;;;;;23.64;100.00;99310.26;1729169;81;21044;-53
2022/08/21 08:07:53;;;;;;;16.85;1.60;;;;;;;23.66;100.00;99315.05;1732189;80;21078;-53
2022/08/21 08:10:20;;;;;;;15.53;2.33;;;;;;;23.69;100.00;99313.35;1739734;80;21113;-54
2022/08/21 08:12:46;;;;;;;21.42;1.90;;;;;;;23.67;100.00;99310.77;1734640;80;21175;-54
2022/08/21 08:15:16;;;;;;;12.15;1.45;;;;;;;23.65;100.00;99312.81;1734550;81;21113;-53
2022/08/21 08:17:42;;;;;;;13.90;1.90;;;;;;;23.70;100.00;99317.82;1734729;82;21103;-53
2022/08/21 08:20:10;;;;;;;9.08;1.62;;;;;;;23.75;100.00;99314.91;1734238;80;21063;-53
2022/08/21 08:22:37;;;;;;;24.20;2.50;;;;;;;23.84;100.00;99316.30;1723005;80;21468;-53
2022/08/21 08:25:06;;;;;;;20.97;2.17;;;;;;;23.89;100.00;99317.53;1731042;81;21113;-53
2022/08/21 08:27:33;;;;;;;11.95;1.10;;;;;;;23.95;100.00;99315.47;1736739;81;21064;-54
2022/08/21 08:29:59;;;;;;;14.10;1.75;;;;;;;24.02;100.00;99309.63;1737811;80;21036;-53
2022/08/21 08:32:26;;;;;;;13.43;1.72;;;;;;;24.06;100.00;99310.16;1737975;80;21106;-54
2022/08/21 08:34:52;;;;;;;14.15;1.22;;;;;;;24.10;100.00;99311.01;1731676;80;21218;-54
2022/08/21 08:37:19;;;;;;;19.37;2.20;;;;;;;24.17;100.00;99314.45;1732929;80;21077;-54
2022/08/21 08:39:46;;;;;;;9.78;1.37;;;;;;;24.20;100.00;99307.23;1737712;80;21981;-53
2022/08/21 08:42:24;;;;;;;23.77;3.27;;;;;;;24.17;100.00;99308.95;1730220;80;21102;-52
2022/08/21 08:44:56;;;;;;;21.35;1.80;;;;;;;24.18;100.00;99313.41;1739226;80;21038;-54
2022/08/21 08:47:23;;;;;;;13.03;1.50;;;;;;;24.24;100.00;99312.78;1735812;80;21233;-53
2022/08/21 08:50:01;;;;;;;23.35;2.22;;;;;;;24.28;100.00;99317.76;1733655;81;20930;-53
2022/08/21 08:52:30;;;;;;;18.98;1.65;;;;;;;24.34;100.00;99309.33;1731166;80;21342;-52
2022/08/21 08:55:05;;;;;;;13.35;1.52;;;;;;;24.38;100.00;99306.59;1728188;81;21372;-52
2022/08/21 08:57:33;;;;;;;18.12;1.80;;;;;;;24.41;100.00;99314.51;1692683;82;20954;-55
2022/08/21 09:00:09;;;;;;;13.55;1.92;;;;;;;24.47;100.00;99311.05;1736178;80;21026;-53
2022/08/21 09:02:38;;;;;;;17.23;2.42;;;;;;;24.56;100.00;99316.03;1726999;80;20916;-53
2022/08/21 09:05:07;;;;;;;14.07;1.37;;;;;;;24.64;100.00;99310.00;1726208;80;20940;-54
2022/08/21 09:07:46;;;;;;;16.10;2.20;;;;;;;24.71;100.00;99308.78;1728865;81;20998;-53
2022/08/21 09:10:19;;;;;;;16.70;1.40;;;;;;;24.75;100.00;99306.87;1736938;80;20968;-53
2022/08/21 09:13:13;;;;;;;16.53;1.40;;;;;;;24.82;100.00;99313.42;1729880;80;21218;-53
2022/08/21 09:15:55;;;;;;;;;;;;;;;24.88;100.00;99314.59;1740138;80;21456;-54
2022/08/21 09:18:51;;;;;;;9.40;1.17;;;;;;;24.85;100.00;99307.55;1713191;80;20166;-55
2022/08/21 09:21:54;;;;;;;10.08;2.08;;;;;;;24.88;100.00;99309.95;1727517;81;20926;-54
2022/08/21 09:24:58;;;;;;;20.68;1.60;;;;;;;24.95;100.00;99307.37;1736415;81;20958;-54
2022/08/21 09:27:24;;;;;;;22.02;2.80;;;;;;;25.01;100.00;99312.17;1733228;82;21609;-54
2022/08/21 09:29:54;;;;;;;27.20;1.82;;;;;;;25.03;100.00;99312.00;1730139;80;21093;-54
2022/08/21 09:32:30;;;;;;;41.10;3.95;;;;;;;25.03;100.00;99312.00;1730956;81;21084;-54
2022/08/21 09:35:03;;;;;;;17.73;2.15;;;;;;;25.05;100.00;99308.56;1735084;81;21035;-53
2022/08/21 09:37:31;;;;;;;;;;;;;;;25.10;100.00;99303.37;1732130;81;21593;-53
2022/08/21 09:39:58;;;;;;;23.30;2.22;;;;;;;25.19;100.00;99310.57;1727760;81;21148;-53
2022/08/21 09:42:31;;;;;;;12.70;1.65;;;;;;;25.26;100.00;99302.79;1729986;82;21103;-53
2022/08/21 09:45:15;;;;;;;18.32;1.60;;;;;;;25.32;100.00;99293.49;1731906;81;21041;-52
2022/08/21 09:47:42;;;;;;;20.32;1.32;;;;;;;25.40;100.00;99297.58;1719409;80;27702;-54
2022/08/21 09:50:19;;;;;;;25.37;1.62;;;;;;;25.45;100.00;99301.51;1694605;83;21089;-53
2022/08/21 09:52:49;;;;;;;20.70;2.30;;;;;;;25.46;100.00;99298.23;1729313;82;21537;-54
2022/08/21 09:58:06;;;;;;;23.55;2.67;;;;;;;25.47;100.00;99295.82;1734806;80;21078;-52
2022/08/21 10:00:34;;;;;;;24.18;1.42;;;;;;;25.52;100.00;99303.88;1691519;83;21050;-53
2022/08/21 10:03:18;;;;;;;8.70;1.52;;;;;;;25.55;100.00;99306.28;1735901;81;21032;-53
2022/08/21 10:05:59;;;;;;;8.98;1.25;;;;;;;25.58;100.00;99302.32;1730998;80;22473;-54
2022/08/21 10:08:28;;;;;;;20.25;1.42;;;;;;;25.59;100.00;99299.94;1732167;81;21082;-52
2022/08/21 10:10:59;;;;;;;16.27;1.52;;;;;;;25.63;100.00;99306.27;1729908;81;21038;-54
2022/08/21 10:13:34;;;;;;;23.52;1.90;;;;;;;25.65;100.00;99296.45;1694592;83;21119;-53
2022/08/21 10:16:32;;;;;;;18.65;1.65;;;;;;;25.68;100.00;99295.24;1731143;81;21118;-53
2022/08/21 10:19:33;;;;;;;14.58;1.15;;;;;;;25.70;100.00;99295.89;1729346;80;21714;-54
2022/08/21 10:22:41;;;;;;;11.25;1.22;;;;;;;25.71;100.00;99294.86;1732967;80;21093;-53
2022/08/21 10:25:18;;;;;;;15.23;1.55;;;;;;;25.73;100.00;99292.78;1727397;81;21050;-54
2022/08/21 10:28:00;;;;;;;17.15;1.45;;;;;;;25.73;100.00;99292.78;1729434;81;21046;-54
2022/08/21 10:30:52;;;;;;;17.30;1.10;;;;;;;25.75;100.00;99286.58;1732339;80;21136;-54
2022/08/21 10:33:40;;;;;;;16.77;1.77;;;;;;;25.77;100.00;99286.74;1732616;80;21136;-54
2022/08/21 10:36:19;;;;;;;13.75;1.10;;;;;;;25.79;100.00;99286.02;1736237;80;21388;-54
2022/08/21 10:39:05;;;;;;;24.82;1.37;;;;;;;25.86;100.00;99289.75;1735792;81;21070;-54
2022/08/21 10:41:49;;;;;;;18.40;1.00;;;;;;;25.92;100.00;99290.95;1738236;80;21128;-52
2022/08/21 10:44:40;;;;;;;17.32;1.05;;;;;;;25.95;100.00;99287.80;1735704;82;21110;-52
2022/08/21 10:47:15;;;;;;;17.85;1.22;;;;;;;25.97;100.00;99282.45;1730646;80;21223;-55
2022/08/21 10:49:53;;;;;;;12.35;1.00;;;;;;;26.02;100.00;99279.16;1735437;80;21706;-53
2022/08/21 10:52:43;;;;;;;28.07;2.62;;;;;;;26.07;100.00;99287.72;1741327;80;21586;-53
2022/08/21 10:55:17;;;;;;;17.57;1.12;;;;;;;26.12;100.00;99280.27;1675482;83;21079;-54
2022/08/21 10:58:04;;;;;;;17.87;1.98;;;;;;;26.20;100.00;99285.74;1732594;80;21176;-55
2022/08/21 11:00:45;;;;;;;15.63;1.30;;;;;;;26.24;100.00;99274.14;1735597;80;21483;-54
2022/08/21 11:03:19;;;;;;;15.95;1.27;;;;;;;26.28;100.00;99278.29;1729773;81;21559;-54
2022/08/21 11:05:51;;;;;;;18.07;1.95;;;;;;;26.34;100.00;99278.05;1733955;80;21405;-54
2022/08/21 11:08:25;;;;;;;20.48;1.20;;;;;;;26.36;100.00;99275.45;1733789;80;21626;-52
2022/08/21 11:11:22;;;;;;;17.67;1.90;;;;;;;26.40;100.00;99268.16;1731374;80;21095;-53
2022/08/21 11:13:55;;;;;;;10.95;1.32;;;;;;;26.41;100.00;99270.74;1677335;83;21143;-54
2022/08/21 11:16:48;;;;;;;18.07;1.52;;;;;;;26.43;100.00;99275.56;1719446;80;21137;-53
2022/08/21 11:22:49;;;;;;;13.00;1.17;;;;;;;26.50;100.00;99257.73;1792117;77;23170;-55
2022/08/21 11:25:21;;;;;;;11.90;1.00;;;;;;;26.50;100.00;99265.48;1763080;78;21042;-55
2022/08/21 11:27:58;;;;;;;19.52;1.20;;;;;;;26.51;100.00;99253.41;1771037;79;21341;-53
2022/08/21 11:30:29;;;;;;;21.45;1.20;;;;;;;26.50;100.00;99258.59;1759875;79;21018;-54
2022/08/21 11:33:22;;;;;;;13.00;1.35;;;;;;;26.53;100.00;99262.88;1765818;79;21044;-55
2022/08/21 11:36:04;;;;;;;18.42;1.30;;;;;;;26.55;100.00;99253.34;1764295;79;21576;-54
2022/08/21 11:38:45;;;;;;;18.92;1.65;;;;;;;26.61;100.00;99258.66;1764426;79;21040;-54